| Date | Time | Temp. (oF) | Dew Point (oF) | Rel. Hum. (%) | Press. (in.) | Wind Dir. | Wind Speed (mph) | Hourly Rainfall (in.) |
|
|---|---|---|---|---|---|---|---|---|---|
| 1 | 12/23 | 00:00 | 25 | 22 | 90 | 30.29 | NE | 0 | 0.00 |
| 2 | 12/22 | 23:00 | 26 | 22 | 86 | 30.32 | NNE | 0 | 0.00 |
| 3 | 12/22 | 22:00 | 27 | 22 | 84 | 30.32 | NNE | 0 | 0.00 |
| 4 | 12/22 | 21:00 | 28 | 22 | 81 | 30.35 | NNW | 0 | 0.00 |
| 5 | 12/22 | 20:00 | 29 | 21 | 74 | 30.34 | NNW | 0 | 0.00 |
| 6 | 12/22 | 19:00 | 31 | 22 | 69 | 30.34 | NNW | 0 | 0.00 |
| 7 | 12/22 | 18:00 | 35 | 22 | 60 | 30.35 | NNW | 0 | 0.00 |
| 8 | 12/22 | 17:00 | 38 | 22 | 54 | 30.35 | NNW | 1 | 0.00 |
| 9 | 12/22 | 16:00 | 41 | 23 | 49 | 30.35 | W | 4 | 0.00 |
| 10 | 12/22 | 15:00 | 41 | 23 | 49 | 30.35 | NW | 3 | 0.00 |
| 11 | 12/22 | 14:00 | 41 | 23 | 50 | 30.36 | WSW | 3 | 0.00 |
| 12 | 12/22 | 13:00 | 39 | 22 | 52 | 30.39 | W | 5 | 0.00 |
| 13 | 12/22 | 12:00 | 38 | 23 | 55 | 30.41 | NW | 3 | 0.00 |
| 14 | 12/22 | 11:00 | 36 | 23 | 60 | 30.44 | WNW | 4 | 0.00 |
| 15 | 12/22 | 10:00 | 33 | 21 | 63 | 30.47 | WNW | 7 | 0.00 |
| 16 | 12/22 | 09:00 | 29 | 24 | 84 | 30.47 | W | 5 | 0.00 |
| 17 | 12/22 | 08:00 | 24 | 19 | 83 | 30.46 | SW | 1 | 0.00 |
| 18 | 12/22 | 07:00 | 25 | 19 | 80 | 30.43 | W | 0 | 0.00 |
| 19 | 12/22 | 06:00 | 26 | 20 | 81 | 30.41 | WNW | 4 | 0.00 |
| 20 | 12/22 | 05:00 | 26 | 20 | 80 | 30.39 | WNW | 4 | 0.00 |
| 21 | 12/22 | 04:00 | 27 | 21 | 79 | 30.39 | WSW | 0 | 0.00 |
| 22 | 12/22 | 03:00 | 28 | 21 | 77 | 30.38 | WNW | 1 | 0.00 |
| 23 | 12/22 | 02:00 | 28 | 21 | 76 | 30.36 | WNW | 8 | 0.00 |
| 24 | 12/22 | 01:00 | 29 | 22 | 75 | 30.35 | S | 2 | 0.00 |